sensor_id;sensor_type;location;lat;lon;timestamp;P1;durP1;ratioP1;P2;durP2;ratioP2
44165;SDS011;30476;53.468;9.826;2022-10-16T00:02:02;6.70;;;4.77;;
44165;SDS011;30476;53.468;9.826;2022-10-16T00:04:27;4.80;;;4.40;;
44165;SDS011;30476;53.468;9.826;2022-10-16T00:06:53;3.77;;;3.50;;
44165;SDS011;30476;53.468;9.826;2022-10-16T00:09:19;7.40;;;3.50;;
44165;SDS011;30476;53.468;9.826;2022-10-16T00:11:45;3.80;;;3.50;;
44165;SDS011;30476;53.468;9.826;2022-10-16T00:14:12;4.30;;;3.73;;
44165;SDS011;30476;53.468;9.826;2022-10-16T00:16:39;3.43;;;3.13;;
44165;SDS011;30476;53.468;9.826;2022-10-16T00:19:05;2.83;;;2.63;;
44165;SDS011;30476;53.468;9.826;2022-10-16T00:21:31;3.30;;;3.00;;
44165;SDS011;30476;53.468;9.826;2022-10-16T00:23:59;3.20;;;2.90;;
44165;SDS011;30476;53.468;9.826;2022-10-16T00:26:31;4.70;;;3.27;;
44165;SDS011;30476;53.468;9.826;2022-10-16T00:28:59;3.10;;;2.80;;
44165;SDS011;30476;53.468;9.826;2022-10-16T00:31:25;2.30;;;2.20;;
44165;SDS011;30476;53.468;9.826;2022-10-16T00:33:51;3.00;;;2.70;;
44165;SDS011;30476;53.468;9.826;2022-10-16T00:36:18;3.13;;;2.40;;
44165;SDS011;30476;53.468;9.826;2022-10-16T00:38:45;3.37;;;2.40;;
44165;SDS011;30476;53.468;9.826;2022-10-16T00:41:13;6.43;;;2.67;;
44165;SDS011;30476;53.468;9.826;2022-10-16T00:48:39;2.80;;;2.30;;
44165;SDS011;30476;53.468;9.826;2022-10-16T00:51:05;2.23;;;2.00;;
44165;SDS011;30476;53.468;9.826;2022-10-16T00:53:32;3.00;;;2.63;;
44165;SDS011;30476;53.468;9.826;2022-10-16T00:55:59;2.90;;;1.90;;
44165;SDS011;30476;53.468;9.826;2022-10-16T00:58:24;2.00;;;1.80;;
44165;SDS011;30476;53.468;9.826;2022-10-16T01:00:50;2.13;;;1.63;;
44165;SDS011;30476;53.468;9.826;2022-10-16T01:03:23;2.33;;;2.13;;
44165;SDS011;30476;53.468;9.826;2022-10-16T01:05:57;2.67;;;1.67;;
44165;SDS011;30476;53.468;9.826;2022-10-16T01:08:35;3.40;;;1.80;;
44165;SDS011;30476;53.468;9.826;2022-10-16T01:13:58;2.50;;;1.87;;
44165;SDS011;30476;53.468;9.826;2022-10-16T01:16:40;2.93;;;1.60;;
44165;SDS011;30476;53.468;9.826;2022-10-16T01:19:56;4.37;;;1.70;;
44165;SDS011;30476;53.468;9.826;2022-10-16T01:22:29;2.17;;;1.60;;
44165;SDS011;30476;53.468;9.826;2022-10-16T01:25:05;4.33;;;2.00;;
44165;SDS011;30476;53.468;9.826;2022-10-16T01:27:36;7.40;;;3.63;;
44165;SDS011;30476;53.468;9.826;2022-10-16T01:32:45;1.77;;;1.53;;
44165;SDS011;30476;53.468;9.826;2022-10-16T01:35:15;4.10;;;1.60;;
44165;SDS011;30476;53.468;9.826;2022-10-16T01:37:51;1.73;;;1.57;;
44165;SDS011;30476;53.468;9.826;2022-10-16T01:40:23;1.77;;;1.43;;
44165;SDS011;30476;53.468;9.826;2022-10-16T01:42:59;1.60;;;1.50;;
44165;SDS011;30476;53.468;9.826;2022-10-16T01:45:46;3.00;;;1.63;;
44165;SDS011;30476;53.468;9.826;2022-10-16T01:48:13;2.30;;;1.50;;
44165;SDS011;30476;53.468;9.826;2022-10-16T01:50:43;2.50;;;1.37;;
44165;SDS011;30476;53.468;9.826;2022-10-16T01:53:13;2.63;;;1.97;;
44165;SDS011;30476;53.468;9.826;2022-10-16T01:55:43;2.53;;;1.73;;
44165;SDS011;30476;53.468;9.826;2022-10-16T01:58:11;1.70;;;1.60;;
44165;SDS011;30476;53.468;9.826;2022-10-16T02:00:39;4.67;;;1.60;;
44165;SDS011;30476;53.468;9.826;2022-10-16T02:03:08;2.00;;;1.40;;
44165;SDS011;30476;53.468;9.826;2022-10-16T02:05:39;3.93;;;2.43;;
44165;SDS011;30476;53.468;9.826;2022-10-16T02:08:11;2.07;;;1.30;;
44165;SDS011;30476;53.468;9.826;2022-10-16T02:10:37;2.53;;;1.30;;
44165;SDS011;30476;53.468;9.826;2022-10-16T02:13:06;2.70;;;1.40;;
44165;SDS011;30476;53.468;9.826;2022-10-16T02:15:34;5.03;;;1.43;;
44165;SDS011;30476;53.468;9.826;2022-10-16T02:18:01;2.50;;;1.30;;
44165;SDS011;30476;53.468;9.826;2022-10-16T02:20:28;3.00;;;1.70;;
44165;SDS011;30476;53.468;9.826;2022-10-16T02:23:01;3.90;;;1.50;;
44165;SDS011;30476;53.468;9.826;2022-10-16T02:28:16;3.53;;;1.27;;
44165;SDS011;30476;53.468;9.826;2022-10-16T02:30:51;1.87;;;1.20;;
44165;SDS011;30476;53.468;9.826;2022-10-16T02:33:25;1.87;;;1.70;;
44165;SDS011;30476;53.468;9.826;2022-10-16T02:35:52;2.00;;;1.50;;
44165;SDS011;30476;53.468;9.826;2022-10-16T02:38:20;2.47;;;1.50;;
44165;SDS011;30476;53.468;9.826;2022-10-16T02:40:47;2.70;;;1.10;;
44165;SDS011;30476;53.468;9.826;2022-10-16T02:43:13;1.60;;;1.10;;
44165;SDS011;30476;53.468;9.826;2022-10-16T02:45:39;2.53;;;1.17;;
44165;SDS011;30476;53.468;9.826;2022-10-16T02:48:05;1.73;;;1.10;;
44165;SDS011;30476;53.468;9.826;2022-10-16T02:50:31;7.00;;;1.40;;
44165;SDS011;30476;53.468;9.826;2022-10-16T02:52:57;1.90;;;1.20;;
44165;SDS011;30476;53.468;9.826;2022-10-16T02:55:26;1.90;;;1.40;;
44165;SDS011;30476;53.468;9.826;2022-10-16T02:58:00;1.73;;;1.30;;
44165;SDS011;30476;53.468;9.826;2022-10-16T03:00:25;2.47;;;1.40;;
44165;SDS011;30476;53.468;9.826;2022-10-16T03:02:51;1.70;;;1.20;;
44165;SDS011;30476;53.468;9.826;2022-10-16T03:05:16;2.50;;;1.40;;
44165;SDS011;30476;53.468;9.826;2022-10-16T03:07:42;2.83;;;1.27;;
44165;SDS011;30476;53.468;9.826;2022-10-16T03:10:08;4.03;;;1.50;;
44165;SDS011;30476;53.468;9.826;2022-10-16T03:12:34;1.50;;;1.40;;
44165;SDS011;30476;53.468;9.826;2022-10-16T03:15:00;1.37;;;1.27;;
44165;SDS011;30476;53.468;9.826;2022-10-16T03:17:26;1.57;;;1.30;;
44165;SDS011;30476;53.468;9.826;2022-10-16T03:19:51;1.90;;;1.37;;
44165;SDS011;30476;53.468;9.826;2022-10-16T03:22:17;1.60;;;1.50;;
44165;SDS011;30476;53.468;9.826;2022-10-16T03:24:43;1.73;;;1.63;;
44165;SDS011;30476;53.468;9.826;2022-10-16T03:27:09;1.70;;;1.57;;
44165;SDS011;30476;53.468;9.826;2022-10-16T03:29:34;1.93;;;1.30;;
44165;SDS011;30476;53.468;9.826;2022-10-16T03:32:00;3.00;;;1.77;;
44165;SDS011;30476;53.468;9.826;2022-10-16T03:34:26;1.47;;;1.20;;
44165;SDS011;30476;53.468;9.826;2022-10-16T03:36:53;2.83;;;1.30;;
44165;SDS011;30476;53.468;9.826;2022-10-16T03:39:19;2.27;;;1.30;;
44165;SDS011;30476;53.468;9.826;2022-10-16T03:41:44;4.13;;;1.33;;
44165;SDS011;30476;53.468;9.826;2022-10-16T03:44:11;2.20;;;1.40;;
44165;SDS011;30476;53.468;9.826;2022-10-16T03:46:37;1.67;;;1.10;;
44165;SDS011;30476;53.468;9.826;2022-10-16T03:49:03;1.73;;;1.63;;
44165;SDS011;30476;53.468;9.826;2022-10-16T03:51:29;1.77;;;1.67;;
44165;SDS011;30476;53.468;9.826;2022-10-16T03:53:55;2.20;;;1.40;;
44165;SDS011;30476;53.468;9.826;2022-10-16T03:56:21;1.57;;;1.47;;
44165;SDS011;30476;53.468;9.826;2022-10-16T03:58:47;1.60;;;1.40;;
44165;SDS011;30476;53.468;9.826;2022-10-16T04:01:12;4.03;;;1.53;;
44165;SDS011;30476;53.468;9.826;2022-10-16T04:03:38;1.60;;;1.40;;
44165;SDS011;30476;53.468;9.826;2022-10-16T04:06:04;1.10;;;1.10;;
44165;SDS011;30476;53.468;9.826;2022-10-16T04:08:30;2.37;;;2.27;;
44165;SDS011;30476;53.468;9.826;2022-10-16T04:10:56;1.97;;;1.30;;
44165;SDS011;30476;53.468;9.826;2022-10-16T04:13:21;1.80;;;1.70;;
44165;SDS011;30476;53.468;9.826;2022-10-16T04:15:47;2.10;;;1.30;;
44165;SDS011;30476;53.468;9.826;2022-10-16T04:18:13;2.80;;;1.40;;
44165;SDS011;30476;53.468;9.826;2022-10-16T04:20:39;1.40;;;1.30;;
44165;SDS011;30476;53.468;9.826;2022-10-16T04:23:05;1.80;;;1.23;;
44165;SDS011;30476;53.468;9.826;2022-10-16T04:25:31;5.30;;;5.00;;
44165;SDS011;30476;53.468;9.826;2022-10-16T04:27:57;5.20;;;1.53;;
44165;SDS011;30476;53.468;9.826;2022-10-16T04:30:23;1.90;;;1.80;;
44165;SDS011;30476;53.468;9.826;2022-10-16T04:32:50;1.87;;;1.70;;
44165;SDS011;30476;53.468;9.826;2022-10-16T04:35:20;1.83;;;1.73;;
44165;SDS011;30476;53.468;9.826;2022-10-16T04:37:46;2.93;;;1.80;;
44165;SDS011;30476;53.468;9.826;2022-10-16T04:40:12;5.03;;;1.60;;
44165;SDS011;30476;53.468;9.826;2022-10-16T04:42:38;5.90;;;1.70;;
44165;SDS011;30476;53.468;9.826;2022-10-16T04:45:05;2.07;;;1.60;;
44165;SDS011;30476;53.468;9.826;2022-10-16T04:47:31;4.30;;;3.47;;
44165;SDS011;30476;53.468;9.826;2022-10-16T04:49:57;2.60;;;1.80;;
44165;SDS011;30476;53.468;9.826;2022-10-16T04:52:23;2.33;;;2.13;;
44165;SDS011;30476;53.468;9.826;2022-10-16T04:54:50;4.00;;;2.07;;
44165;SDS011;30476;53.468;9.826;2022-10-16T04:57:16;4.60;;;2.80;;
44165;SDS011;30476;53.468;9.826;2022-10-16T04:59:42;3.57;;;2.20;;
44165;SDS011;30476;53.468;9.826;2022-10-16T05:02:08;3.63;;;2.83;;
44165;SDS011;30476;53.468;9.826;2022-10-16T05:04:34;2.93;;;2.03;;
44165;SDS011;30476;53.468;9.826;2022-10-16T05:06:59;2.97;;;2.23;;
44165;SDS011;30476;53.468;9.826;2022-10-16T05:09:25;2.97;;;2.67;;
44165;SDS011;30476;53.468;9.826;2022-10-16T05:11:51;5.00;;;2.40;;
44165;SDS011;30476;53.468;9.826;2022-10-16T05:14:17;6.80;;;3.07;;
44165;SDS011;30476;53.468;9.826;2022-10-16T05:16:43;3.50;;;2.70;;
44165;SDS011;30476;53.468;9.826;2022-10-16T05:19:09;3.80;;;2.13;;
44165;SDS011;30476;53.468;9.826;2022-10-16T05:21:35;6.43;;;2.57;;
44165;SDS011;30476;53.468;9.826;2022-10-16T05:24:01;2.10;;;1.90;;
44165;SDS011;30476;53.468;9.826;2022-10-16T05:26:27;2.63;;;2.43;;
44165;SDS011;30476;53.468;9.826;2022-10-16T05:28:53;3.00;;;2.80;;
44165;SDS011;30476;53.468;9.826;2022-10-16T05:31:18;2.27;;;2.10;;
44165;SDS011;30476;53.468;9.826;2022-10-16T05:33:44;2.60;;;1.97;;
44165;SDS011;30476;53.468;9.826;2022-10-16T05:36:10;2.60;;;1.70;;
44165;SDS011;30476;53.468;9.826;2022-10-16T05:38:36;4.77;;;2.20;;
44165;SDS011;30476;53.468;9.826;2022-10-16T05:41:03;2.00;;;1.90;;
44165;SDS011;30476;53.468;9.826;2022-10-16T05:43:30;1.93;;;1.83;;
44165;SDS011;30476;53.468;9.826;2022-10-16T05:45:57;2.20;;;2.00;;
44165;SDS011;30476;53.468;9.826;2022-10-16T05:48:24;2.10;;;1.90;;
44165;SDS011;30476;53.468;9.826;2022-10-16T05:50:57;2.97;;;1.70;;
44165;SDS011;30476;53.468;9.826;2022-10-16T05:53:23;1.70;;;1.60;;
44165;SDS011;30476;53.468;9.826;2022-10-16T05:55:54;2.30;;;2.07;;
44165;SDS011;30476;53.468;9.826;2022-10-16T05:58:21;2.10;;;1.90;;
44165;SDS011;30476;53.468;9.826;2022-10-16T06:01:00;3.90;;;2.20;;
44165;SDS011;30476;53.468;9.826;2022-10-16T06:03:28;5.57;;;2.37;;
44165;SDS011;30476;53.468;9.826;2022-10-16T06:05:53;4.17;;;2.10;;
44165;SDS011;30476;53.468;9.826;2022-10-16T06:08:20;2.50;;;2.30;;
44165;SDS011;30476;53.468;9.826;2022-10-16T06:10:48;5.30;;;2.00;;
44165;SDS011;30476;53.468;9.826;2022-10-16T06:13:25;3.30;;;1.60;;
44165;SDS011;30476;53.468;9.826;2022-10-16T06:15:50;3.73;;;2.00;;
44165;SDS011;30476;53.468;9.826;2022-10-16T06:18:16;4.30;;;2.33;;
44165;SDS011;30476;53.468;9.826;2022-10-16T06:20:42;3.40;;;2.40;;
44165;SDS011;30476;53.468;9.826;2022-10-16T06:23:08;3.93;;;2.47;;
44165;SDS011;30476;53.468;9.826;2022-10-16T06:25:33;2.53;;;1.93;;
44165;SDS011;30476;53.468;9.826;2022-10-16T06:27:59;2.27;;;2.07;;
44165;SDS011;30476;53.468;9.826;2022-10-16T06:30:25;4.60;;;2.00;;
44165;SDS011;30476;53.468;9.826;2022-10-16T06:32:51;2.87;;;2.67;;
44165;SDS011;30476;53.468;9.826;2022-10-16T06:35:17;2.87;;;2.57;;
44165;SDS011;30476;53.468;9.826;2022-10-16T06:37:42;5.97;;;3.17;;
44165;SDS011;30476;53.468;9.826;2022-10-16T06:40:08;5.10;;;3.10;;
44165;SDS011;30476;53.468;9.826;2022-10-16T06:42:34;3.13;;;2.53;;
44165;SDS011;30476;53.468;9.826;2022-10-16T06:45:00;2.73;;;2.60;;
44165;SDS011;30476;53.468;9.826;2022-10-16T06:47:27;2.83;;;2.63;;
44165;SDS011;30476;53.468;9.826;2022-10-16T06:49:52;3.30;;;3.00;;
44165;SDS011;30476;53.468;9.826;2022-10-16T06:52:18;5.60;;;3.17;;
44165;SDS011;30476;53.468;9.826;2022-10-16T06:54:44;4.87;;;3.37;;
44165;SDS011;30476;53.468;9.826;2022-10-16T06:57:10;4.30;;;3.90;;
44165;SDS011;30476;53.468;9.826;2022-10-16T06:59:36;3.17;;;2.93;;
44165;SDS011;30476;53.468;9.826;2022-10-16T07:02:02;4.60;;;4.20;;
44165;SDS011;30476;53.468;9.826;2022-10-16T07:04:27;3.83;;;3.53;;
44165;SDS011;30476;53.468;9.826;2022-10-16T07:06:53;4.57;;;4.17;;
44165;SDS011;30476;53.468;9.826;2022-10-16T07:09:19;4.73;;;3.97;;
44165;SDS011;30476;53.468;9.826;2022-10-16T07:11:45;3.30;;;2.90;;
44165;SDS011;30476;53.468;9.826;2022-10-16T07:14:12;4.53;;;3.13;;
44165;SDS011;30476;53.468;9.826;2022-10-16T07:16:41;3.40;;;3.10;;
44165;SDS011;30476;53.468;9.826;2022-10-16T07:19:07;3.13;;;2.73;;
44165;SDS011;30476;53.468;9.826;2022-10-16T07:21:34;5.00;;;3.03;;
44165;SDS011;30476;53.468;9.826;2022-10-16T07:24:04;4.33;;;2.93;;
44165;SDS011;30476;53.468;9.826;2022-10-16T07:26:32;4.97;;;3.00;;
44165;SDS011;30476;53.468;9.826;2022-10-16T07:29:00;4.37;;;2.67;;
44165;SDS011;30476;53.468;9.826;2022-10-16T07:31:26;3.23;;;3.03;;
44165;SDS011;30476;53.468;9.826;2022-10-16T07:33:53;5.10;;;3.23;;
44165;SDS011;30476;53.468;9.826;2022-10-16T07:36:19;3.73;;;3.43;;
44165;SDS011;30476;53.468;9.826;2022-10-16T07:38:46;9.70;;;3.00;;
44165;SDS011;30476;53.468;9.826;2022-10-16T07:41:14;3.30;;;3.00;;
44165;SDS011;30476;53.468;9.826;2022-10-16T07:43:45;3.43;;;2.93;;
44165;SDS011;30476;53.468;9.826;2022-10-16T07:46:15;3.97;;;3.10;;
44165;SDS011;30476;53.468;9.826;2022-10-16T07:48:42;4.63;;;2.87;;
44165;SDS011;30476;53.468;9.826;2022-10-16T07:51:11;3.17;;;2.87;;
44165;SDS011;30476;53.468;9.826;2022-10-16T07:53:37;2.97;;;2.77;;
44165;SDS011;30476;53.468;9.826;2022-10-16T07:56:04;6.87;;;2.93;;
44165;SDS011;30476;53.468;9.826;2022-10-16T07:58:31;3.10;;;2.80;;
44165;SDS011;30476;53.468;9.826;2022-10-16T08:00:58;3.10;;;2.80;;
44165;SDS011;30476;53.468;9.826;2022-10-16T08:03:27;4.87;;;3.23;;
44165;SDS011;30476;53.468;9.826;2022-10-16T08:05:53;3.20;;;2.90;;
44165;SDS011;30476;53.468;9.826;2022-10-16T08:08:19;3.00;;;2.70;;
44165;SDS011;30476;53.468;9.826;2022-10-16T08:10:45;3.07;;;2.87;;
44165;SDS011;30476;53.468;9.826;2022-10-16T08:13:11;3.83;;;2.40;;
44165;SDS011;30476;53.468;9.826;2022-10-16T08:15:40;3.80;;;2.80;;
44165;SDS011;30476;53.468;9.826;2022-10-16T08:18:10;4.23;;;3.03;;
44165;SDS011;30476;53.468;9.826;2022-10-16T08:20:37;3.00;;;2.60;;
44165;SDS011;30476;53.468;9.826;2022-10-16T08:23:03;2.87;;;2.60;;
44165;SDS011;30476;53.468;9.826;2022-10-16T08:25:29;2.60;;;2.50;;
44165;SDS011;30476;53.468;9.826;2022-10-16T08:27:55;4.90;;;2.80;;
44165;SDS011;30476;53.468;9.826;2022-10-16T08:30:22;3.50;;;2.67;;
44165;SDS011;30476;53.468;9.826;2022-10-16T08:32:48;2.70;;;2.50;;
44165;SDS011;30476;53.468;9.826;2022-10-16T08:35:15;3.50;;;2.43;;
44165;SDS011;30476;53.468;9.826;2022-10-16T08:37:41;2.77;;;2.27;;
44165;SDS011;30476;53.468;9.826;2022-10-16T08:40:28;7.43;;;6.90;;
44165;SDS011;30476;53.468;9.826;2022-10-16T08:46:01;3.77;;;2.63;;
44165;SDS011;30476;53.468;9.826;2022-10-16T08:48:51;2.37;;;2.17;;
44165;SDS011;30476;53.468;9.826;2022-10-16T08:53:54;2.03;;;1.93;;
44165;SDS011;30476;53.468;9.826;2022-10-16T08:56:22;1.80;;;1.70;;
44165;SDS011;30476;53.468;9.826;2022-10-16T08:58:49;2.00;;;1.80;;
44165;SDS011;30476;53.468;9.826;2022-10-16T09:01:17;3.83;;;2.17;;
44165;SDS011;30476;53.468;9.826;2022-10-16T09:06:59;2.30;;;1.80;;
44165;SDS011;30476;53.468;9.826;2022-10-16T09:15:07;2.47;;;2.27;;
44165;SDS011;30476;53.468;9.826;2022-10-16T09:17:44;1.80;;;1.50;;
44165;SDS011;30476;53.468;9.826;2022-10-16T09:25:51;4.80;;;1.80;;
44165;SDS011;30476;53.468;9.826;2022-10-16T09:28:19;2.90;;;1.60;;
44165;SDS011;30476;53.468;9.826;2022-10-16T09:30:46;1.40;;;1.30;;
44165;SDS011;30476;53.468;9.826;2022-10-16T09:33:15;1.93;;;1.73;;
44165;SDS011;30476;53.468;9.826;2022-10-16T09:35:47;1.60;;;1.30;;
44165;SDS011;30476;53.468;9.826;2022-10-16T09:38:22;1.47;;;1.23;;
44165;SDS011;30476;53.468;9.826;2022-10-16T09:40:50;3.00;;;1.70;;
44165;SDS011;30476;53.468;9.826;2022-10-16T09:43:38;1.40;;;1.10;;
44165;SDS011;30476;53.468;9.826;2022-10-16T09:46:07;1.80;;;1.70;;
44165;SDS011;30476;53.468;9.826;2022-10-16T09:48:54;4.10;;;1.33;;
44165;SDS011;30476;53.468;9.826;2022-10-16T09:51:32;1.30;;;1.20;;
44165;SDS011;30476;53.468;9.826;2022-10-16T09:54:01;3.70;;;1.40;;
44165;SDS011;30476;53.468;9.826;2022-10-16T09:56:35;3.27;;;1.60;;
44165;SDS011;30476;53.468;9.826;2022-10-16T09:59:10;1.83;;;1.33;;
44165;SDS011;30476;53.468;9.826;2022-10-16T10:01:41;1.70;;;1.13;;
44165;SDS011;30476;53.468;9.826;2022-10-16T10:04:11;1.33;;;1.20;;
44165;SDS011;30476;53.468;9.826;2022-10-16T10:06:42;1.80;;;1.30;;
44165;SDS011;30476;53.468;9.826;2022-10-16T10:09:36;2.40;;;1.30;;
44165;SDS011;30476;53.468;9.826;2022-10-16T10:12:05;2.50;;;1.57;;
44165;SDS011;30476;53.468;9.826;2022-10-16T10:14:43;3.00;;;2.60;;
44165;SDS011;30476;53.468;9.826;2022-10-16T10:17:16;1.20;;;1.10;;
44165;SDS011;30476;53.468;9.826;2022-10-16T10:19:48;2.03;;;1.10;;
44165;SDS011;30476;53.468;9.826;2022-10-16T10:27:36;2.00;;;1.07;;
44165;SDS011;30476;53.468;9.826;2022-10-16T10:38:54;1.60;;;1.13;;
44165;SDS011;30476;53.468;9.826;2022-10-16T10:46:57;4.43;;;3.87;;
44165;SDS011;30476;53.468;9.826;2022-10-16T10:49:34;2.00;;;1.17;;
44165;SDS011;30476;53.468;9.826;2022-10-16T11:00:33;2.60;;;0.80;;
44165;SDS011;30476;53.468;9.826;2022-10-16T11:06:24;2.47;;;0.90;;
44165;SDS011;30476;53.468;9.826;2022-10-16T11:11:54;1.07;;;1.00;;
44165;SDS011;30476;53.468;9.826;2022-10-16T11:14:34;1.03;;;0.70;;
44165;SDS011;30476;53.468;9.826;2022-10-16T11:17:10;0.87;;;0.80;;
44165;SDS011;30476;53.468;9.826;2022-10-16T11:22:37;1.13;;;0.70;;
44165;SDS011;30476;53.468;9.826;2022-10-16T11:28:19;1.47;;;0.80;;
44165;SDS011;30476;53.468;9.826;2022-10-16T11:30:57;1.53;;;1.43;;
44165;SDS011;30476;53.468;9.826;2022-10-16T11:33:41;1.17;;;0.77;;
44165;SDS011;30476;53.468;9.826;2022-10-16T11:36:20;1.53;;;0.90;;
44165;SDS011;30476;53.468;9.826;2022-10-16T11:39:00;2.27;;;0.77;;
44165;SDS011;30476;53.468;9.826;2022-10-16T11:41:39;1.73;;;0.80;;
44165;SDS011;30476;53.468;9.826;2022-10-16T11:50:03;1.23;;;0.70;;
44165;SDS011;30476;53.468;9.826;2022-10-16T11:52:53;3.77;;;0.80;;
44165;SDS011;30476;53.468;9.826;2022-10-16T11:55:41;6.13;;;0.90;;
44165;SDS011;30476;53.468;9.826;2022-10-16T12:00:55;1.43;;;0.70;;
44165;SDS011;30476;53.468;9.826;2022-10-16T12:03:31;0.87;;;0.70;;
44165;SDS011;30476;53.468;9.826;2022-10-16T12:08:53;1.23;;;0.80;;
44165;SDS011;30476;53.468;9.826;2022-10-16T12:14:07;2.27;;;0.80;;
44165;SDS011;30476;53.468;9.826;2022-10-16T12:16:52;2.37;;;0.90;;
44165;SDS011;30476;53.468;9.826;2022-10-16T12:19:23;0.70;;;0.70;;
44165;SDS011;30476;53.468;9.826;2022-10-16T12:21:50;2.20;;;0.80;;
44165;SDS011;30476;53.468;9.826;2022-10-16T12:24:21;2.00;;;0.93;;
44165;SDS011;30476;53.468;9.826;2022-10-16T12:26:47;1.10;;;0.90;;
44165;SDS011;30476;53.468;9.826;2022-10-16T12:31:47;1.63;;;0.90;;
44165;SDS011;30476;53.468;9.826;2022-10-16T12:34:28;1.67;;;0.73;;
44165;SDS011;30476;53.468;9.826;2022-10-16T12:37:14;1.17;;;0.70;;
44165;SDS011;30476;53.468;9.826;2022-10-16T12:39:52;1.73;;;0.70;;
44165;SDS011;30476;53.468;9.826;2022-10-16T12:44:51;0.90;;;0.90;;
44165;SDS011;30476;53.468;9.826;2022-10-16T12:47:19;1.43;;;0.90;;
44165;SDS011;30476;53.468;9.826;2022-10-16T12:50:00;2.43;;;0.80;;
44165;SDS011;30476;53.468;9.826;2022-10-16T12:52:27;2.30;;;0.83;;
44165;SDS011;30476;53.468;9.826;2022-10-16T12:55:00;1.00;;;0.77;;
44165;SDS011;30476;53.468;9.826;2022-10-16T13:00:26;1.20;;;0.80;;
44165;SDS011;30476;53.468;9.826;2022-10-16T13:19:58;5.27;;;1.23;;
44165;SDS011;30476;53.468;9.826;2022-10-16T13:28:10;2.93;;;1.00;;
44165;SDS011;30476;53.468;9.826;2022-10-16T13:30:41;2.30;;;0.80;;
44165;SDS011;30476;53.468;9.826;2022-10-16T13:33:16;1.77;;;0.90;;
44165;SDS011;30476;53.468;9.826;2022-10-16T13:36:05;2.30;;;0.90;;
44165;SDS011;30476;53.468;9.826;2022-10-16T13:38:32;2.10;;;0.80;;
44165;SDS011;30476;53.468;9.826;2022-10-16T13:41:05;3.13;;;0.90;;
44165;SDS011;30476;53.468;9.826;2022-10-16T13:43:49;2.53;;;1.00;;
44165;SDS011;30476;53.468;9.826;2022-10-16T13:46:20;2.00;;;0.90;;
44165;SDS011;30476;53.468;9.826;2022-10-16T13:48:57;4.70;;;1.10;;
44165;SDS011;30476;53.468;9.826;2022-10-16T13:51:23;1.40;;;0.90;;
44165;SDS011;30476;53.468;9.826;2022-10-16T13:53:48;3.20;;;0.90;;
44165;SDS011;30476;53.468;9.826;2022-10-16T13:56:15;1.83;;;1.20;;
44165;SDS011;30476;53.468;9.826;2022-10-16T13:58:59;1.90;;;0.80;;
44165;SDS011;30476;53.468;9.826;2022-10-16T14:01:33;2.30;;;0.87;;
44165;SDS011;30476;53.468;9.826;2022-10-16T14:04:05;2.30;;;0.77;;
44165;SDS011;30476;53.468;9.826;2022-10-16T14:06:34;1.73;;;0.90;;
44165;SDS011;30476;53.468;9.826;2022-10-16T14:09:05;2.70;;;0.80;;
44165;SDS011;30476;53.468;9.826;2022-10-16T14:11:33;4.33;;;1.37;;
44165;SDS011;30476;53.468;9.826;2022-10-16T14:14:12;1.80;;;0.90;;
44165;SDS011;30476;53.468;9.826;2022-10-16T14:16:40;2.10;;;0.80;;
44165;SDS011;30476;53.468;9.826;2022-10-16T14:19:27;3.03;;;0.90;;
44165;SDS011;30476;53.468;9.826;2022-10-16T14:21:54;3.07;;;0.87;;
44165;SDS011;30476;53.468;9.826;2022-10-16T14:26:58;3.47;;;1.00;;
44165;SDS011;30476;53.468;9.826;2022-10-16T14:29:26;1.10;;;1.00;;
44165;SDS011;30476;53.468;9.826;2022-10-16T14:32:21;2.30;;;1.10;;
44165;SDS011;30476;53.468;9.826;2022-10-16T14:34:52;3.00;;;0.80;;
44165;SDS011;30476;53.468;9.826;2022-10-16T14:39:50;5.10;;;1.00;;
44165;SDS011;30476;53.468;9.826;2022-10-16T14:42:18;4.83;;;1.73;;
44165;SDS011;30476;53.468;9.826;2022-10-16T14:44:45;3.40;;;1.10;;
44165;SDS011;30476;53.468;9.826;2022-10-16T14:47:16;1.70;;;1.00;;
44165;SDS011;30476;53.468;9.826;2022-10-16T14:49:47;2.00;;;1.53;;
44165;SDS011;30476;53.468;9.826;2022-10-16T14:52:13;1.70;;;1.00;;
44165;SDS011;30476;53.468;9.826;2022-10-16T14:54:39;2.47;;;1.00;;
44165;SDS011;30476;53.468;9.826;2022-10-16T14:57:13;2.30;;;0.90;;
44165;SDS011;30476;53.468;9.826;2022-10-16T14:59:46;1.70;;;1.60;;
44165;SDS011;30476;53.468;9.826;2022-10-16T15:02:29;3.80;;;1.00;;
44165;SDS011;30476;53.468;9.826;2022-10-16T15:04:56;1.23;;;0.90;;
44165;SDS011;30476;53.468;9.826;2022-10-16T15:07:23;3.70;;;1.20;;
44165;SDS011;30476;53.468;9.826;2022-10-16T15:09:49;1.60;;;1.00;;
44165;SDS011;30476;53.468;9.826;2022-10-16T15:12:16;1.23;;;1.00;;
44165;SDS011;30476;53.468;9.826;2022-10-16T15:14:42;1.33;;;0.90;;
44165;SDS011;30476;53.468;9.826;2022-10-16T15:17:11;1.70;;;1.27;;
44165;SDS011;30476;53.468;9.826;2022-10-16T15:19:37;1.17;;;0.80;;
44165;SDS011;30476;53.468;9.826;2022-10-16T15:22:03;3.93;;;0.80;;
44165;SDS011;30476;53.468;9.826;2022-10-16T15:24:29;3.53;;;1.73;;
44165;SDS011;30476;53.468;9.826;2022-10-16T15:26:55;1.60;;;0.90;;
44165;SDS011;30476;53.468;9.826;2022-10-16T15:29:20;2.40;;;1.00;;
44165;SDS011;30476;53.468;9.826;2022-10-16T15:31:46;8.33;;;1.20;;
44165;SDS011;30476;53.468;9.826;2022-10-16T15:34:12;4.53;;;1.00;;
44165;SDS011;30476;53.468;9.826;2022-10-16T15:36:39;4.10;;;0.90;;
44165;SDS011;30476;53.468;9.826;2022-10-16T15:39:08;3.13;;;0.80;;
44165;SDS011;30476;53.468;9.826;2022-10-16T15:41:38;3.47;;;1.77;;
44165;SDS011;30476;53.468;9.826;2022-10-16T15:44:05;2.27;;;1.00;;
44165;SDS011;30476;53.468;9.826;2022-10-16T15:46:30;4.20;;;1.30;;
44165;SDS011;30476;53.468;9.826;2022-10-16T15:48:58;3.00;;;1.07;;
44165;SDS011;30476;53.468;9.826;2022-10-16T15:51:25;2.47;;;1.20;;
44165;SDS011;30476;53.468;9.826;2022-10-16T15:53:57;4.90;;;1.10;;
44165;SDS011;30476;53.468;9.826;2022-10-16T15:56:24;0.97;;;0.90;;
44165;SDS011;30476;53.468;9.826;2022-10-16T15:58:54;2.83;;;1.10;;
44165;SDS011;30476;53.468;9.826;2022-10-16T16:01:20;4.83;;;1.00;;
44165;SDS011;30476;53.468;9.826;2022-10-16T16:03:46;5.10;;;0.90;;
44165;SDS011;30476;53.468;9.826;2022-10-16T16:06:13;1.70;;;0.90;;
44165;SDS011;30476;53.468;9.826;2022-10-16T16:08:39;1.70;;;0.90;;
44165;SDS011;30476;53.468;9.826;2022-10-16T16:13:35;1.00;;;0.90;;
44165;SDS011;30476;53.468;9.826;2022-10-16T16:16:06;1.57;;;0.80;;
44165;SDS011;30476;53.468;9.826;2022-10-16T16:18:37;4.33;;;1.00;;
44165;SDS011;30476;53.468;9.826;2022-10-16T16:21:03;2.57;;;1.20;;
44165;SDS011;30476;53.468;9.826;2022-10-16T16:23:30;4.63;;;1.03;;
44165;SDS011;30476;53.468;9.826;2022-10-16T16:26:03;1.67;;;0.90;;
44165;SDS011;30476;53.468;9.826;2022-10-16T16:28:35;3.80;;;0.97;;
44165;SDS011;30476;53.468;9.826;2022-10-16T16:31:02;5.30;;;1.13;;
44165;SDS011;30476;53.468;9.826;2022-10-16T16:33:28;3.40;;;1.30;;
44165;SDS011;30476;53.468;9.826;2022-10-16T16:35:58;5.13;;;1.10;;
44165;SDS011;30476;53.468;9.826;2022-10-16T16:38:25;2.13;;;1.13;;
44165;SDS011;30476;53.468;9.826;2022-10-16T16:40:51;3.60;;;1.87;;
44165;SDS011;30476;53.468;9.826;2022-10-16T16:43:17;1.43;;;1.33;;
44165;SDS011;30476;53.468;9.826;2022-10-16T16:45:44;1.80;;;1.43;;
44165;SDS011;30476;53.468;9.826;2022-10-16T16:48:10;1.67;;;1.40;;
44165;SDS011;30476;53.468;9.826;2022-10-16T16:50:36;5.90;;;2.33;;
44165;SDS011;30476;53.468;9.826;2022-10-16T16:53:02;2.60;;;1.00;;
44165;SDS011;30476;53.468;9.826;2022-10-16T16:55:28;1.73;;;1.10;;
44165;SDS011;30476;53.468;9.826;2022-10-16T16:57:54;1.70;;;1.00;;
44165;SDS011;30476;53.468;9.826;2022-10-16T17:00:22;1.90;;;1.10;;
44165;SDS011;30476;53.468;9.826;2022-10-16T17:02:51;2.47;;;1.00;;
44165;SDS011;30476;53.468;9.826;2022-10-16T17:05:17;7.30;;;1.87;;
44165;SDS011;30476;53.468;9.826;2022-10-16T17:07:43;3.10;;;1.40;;